createdAt,value
2023-01-15T00:01:25.847Z,9.30
2023-01-15T00:03:54.450Z,9.30
2023-01-15T00:06:22.725Z,9.20
2023-01-15T00:08:50.358Z,9.30
2023-01-15T00:11:17.555Z,9.30
2023-01-15T00:13:45.003Z,9.40
2023-01-15T00:16:15.315Z,9.40
2023-01-15T00:18:42.128Z,9.30
2023-01-15T00:21:11.573Z,9.30
2023-01-15T00:23:56.530Z,9.40
2023-01-15T00:26:46.957Z,9.40
2023-01-15T00:29:15.156Z,9.40
2023-01-15T00:31:44.155Z,9.40
2023-01-15T00:34:10.822Z,9.40
2023-01-15T00:36:37.819Z,9.40
2023-01-15T00:39:06.719Z,9.40
2023-01-15T00:41:33.519Z,9.40
2023-01-15T00:44:00.428Z,9.40
2023-01-15T00:46:29.197Z,9.40
2023-01-15T00:48:55.894Z,9.40
2023-01-15T00:51:22.863Z,9.40
2023-01-15T00:53:49.495Z,9.40
2023-01-15T00:56:16.155Z,9.40
2023-01-15T00:58:42.925Z,9.50
2023-01-15T01:01:09.892Z,9.40
2023-01-15T01:03:36.637Z,9.40
2023-01-15T01:06:04.701Z,9.50
2023-01-15T01:08:31.462Z,9.40
2023-01-15T01:11:05.744Z,9.50
2023-01-15T01:13:33.468Z,9.50
2023-01-15T01:16:00.695Z,9.70
2023-01-15T01:18:27.964Z,9.60
2023-01-15T01:20:55.050Z,9.60
2023-01-15T01:23:23.690Z,9.70
2023-01-15T01:25:50.385Z,9.60
2023-01-15T01:28:17.073Z,9.60
2023-01-15T01:30:43.746Z,9.50
2023-01-15T01:33:10.412Z,9.50
2023-01-15T01:35:37.082Z,9.50
2023-01-15T01:38:04.420Z,9.50
2023-01-15T01:40:31.129Z,9.40
2023-01-15T01:42:57.751Z,9.40
2023-01-15T01:45:30.199Z,9.50
2023-01-15T01:48:01.810Z,9.40
2023-01-15T01:50:29.633Z,9.50
2023-01-15T01:53:07.317Z,9.40
2023-01-15T01:55:35.876Z,9.40
2023-01-15T01:58:05.349Z,9.30
2023-01-15T02:00:35.014Z,9.30
2023-01-15T02:03:05.363Z,9.10
2023-01-15T02:05:35.444Z,9.10
2023-01-15T02:08:05.133Z,9.10
2023-01-15T02:10:34.160Z,8.90
2023-01-15T02:13:31.697Z,8.90
2023-01-15T02:16:16.726Z,8.90
2023-01-15T02:19:29.745Z,8.80
2023-01-15T02:22:21.552Z,8.70
2023-01-15T02:25:22.780Z,8.80
2023-01-15T02:27:57.739Z,8.80
2023-01-15T02:30:42.519Z,8.80
2023-01-15T02:33:22.001Z,8.70
2023-01-15T02:35:58.177Z,8.90
2023-01-15T02:38:30.737Z,8.90
2023-01-15T02:41:00.951Z,8.80
2023-01-15T02:43:32.852Z,8.80
2023-01-15T02:46:01.562Z,8.70
2023-01-15T02:48:32.793Z,8.60
2023-01-15T02:51:07.545Z,8.50
2023-01-15T02:53:37.651Z,8.50
2023-01-15T02:56:09.762Z,8.50
2023-01-15T02:58:45.082Z,8.50
2023-01-15T03:01:22.447Z,8.50
2023-01-15T03:03:57.893Z,8.40
2023-01-15T03:07:03.986Z,8.50
2023-01-15T03:09:33.528Z,8.50
2023-01-15T03:12:10.235Z,8.10
2023-01-15T03:14:54.089Z,8.20
2023-01-15T03:17:28.242Z,8.10
2023-01-15T03:20:02.197Z,8.00
2023-01-15T03:22:33.935Z,8.00
2023-01-15T03:25:09.218Z,7.90
2023-01-15T03:27:42.263Z,7.90
2023-01-15T03:30:11.675Z,7.90
2023-01-15T03:32:38.763Z,7.80
2023-01-15T03:35:10.554Z,7.80
2023-01-15T03:37:43.145Z,7.80
2023-01-15T03:40:10.942Z,7.80
2023-01-15T03:42:47.304Z,7.70
2023-01-15T03:45:32.279Z,7.70
2023-01-15T03:48:14.463Z,7.70
2023-01-15T03:50:52.919Z,7.70
2023-01-15T03:53:30.995Z,7.60
2023-01-15T03:56:19.122Z,7.60
2023-01-15T03:58:47.361Z,7.60
2023-01-15T04:01:24.772Z,7.60
2023-01-15T04:03:52.765Z,7.60
2023-01-15T04:06:26.377Z,7.60
2023-01-15T04:08:53.919Z,7.50
2023-01-15T04:11:24.834Z,7.40
2023-01-15T04:13:55.031Z,7.30
2023-01-15T04:16:40.945Z,7.40
2023-01-15T04:19:07.701Z,7.30
2023-01-15T04:21:37.324Z,7.40
2023-01-15T04:24:04.207Z,7.30
2023-01-15T04:26:30.843Z,7.20
2023-01-15T04:28:57.446Z,7.30
2023-01-15T04:31:24.102Z,7.30
2023-01-15T04:33:50.700Z,7.10
2023-01-15T04:36:17.449Z,7.10
2023-01-15T04:38:44.138Z,7.20
2023-01-15T04:41:29.799Z,7.00
2023-01-15T04:44:08.635Z,6.80
2023-01-15T04:46:36.520Z,7.00
2023-01-15T04:49:04.710Z,7.00
2023-01-15T04:51:31.415Z,7.00
2023-01-15T04:53:58.281Z,6.90
2023-01-15T04:56:24.955Z,6.90
2023-01-15T04:58:51.587Z,7.00
2023-01-15T05:01:19.256Z,6.90
2023-01-15T05:03:46.055Z,6.90
2023-01-15T05:06:14.339Z,6.80
2023-01-15T05:08:41.050Z,6.90
2023-01-15T05:11:08.000Z,6.90
2023-01-15T05:13:35.103Z,7.00
2023-01-15T05:16:17.564Z,6.80
2023-01-15T05:18:45.635Z,6.60
2023-01-15T05:21:23.477Z,6.50
2023-01-15T05:23:52.848Z,6.40
2023-01-15T05:26:21.055Z,6.50
2023-01-15T05:28:48.604Z,6.50
2023-01-15T05:31:18.907Z,6.50
2023-01-15T05:33:47.185Z,6.40
2023-01-15T05:36:16.872Z,6.20
2023-01-15T05:38:43.718Z,6.30
2023-01-15T05:41:31.848Z,6.40
2023-01-15T05:44:08.083Z,6.50
2023-01-15T05:46:36.485Z,6.50
2023-01-15T05:49:05.748Z,6.40
2023-01-15T05:51:33.293Z,6.40
2023-01-15T05:54:00.315Z,6.40
2023-01-15T05:56:27.126Z,6.40
2023-01-15T05:58:55.134Z,6.40
2023-01-15T06:01:22.194Z,6.20
2023-01-15T06:03:49.231Z,6.30
2023-01-15T06:06:18.260Z,6.40
2023-01-15T06:08:45.449Z,6.40
2023-01-15T06:11:12.964Z,6.30
2023-01-15T06:13:40.388Z,6.40
2023-01-15T06:16:07.891Z,6.40
2023-01-15T06:18:35.526Z,6.40
2023-01-15T06:21:10.598Z,6.30
2023-01-15T06:23:37.999Z,6.30
2023-01-15T06:26:07.160Z,6.30
2023-01-15T06:28:34.137Z,6.20
2023-01-15T06:31:04.024Z,6.30
2023-01-15T06:33:30.721Z,6.50
2023-01-15T06:35:57.377Z,6.20
2023-01-15T06:38:23.999Z,6.00
2023-01-15T06:40:50.648Z,6.10
2023-01-15T06:43:35.946Z,6.20
2023-01-15T06:46:25.744Z,6.10
2023-01-15T06:48:52.400Z,5.90
2023-01-15T06:51:20.356Z,5.90
2023-01-15T06:53:47.391Z,5.90
2023-01-15T06:56:15.021Z,5.90
2023-01-15T06:58:42.699Z,6.00
2023-01-15T07:01:15.211Z,6.00
2023-01-15T07:03:42.116Z,5.70
2023-01-15T07:06:12.895Z,5.60
2023-01-15T07:08:40.262Z,5.60
2023-01-15T07:11:09.619Z,5.60
2023-01-15T07:13:36.970Z,5.60
2023-01-15T07:16:05.047Z,5.40
2023-01-15T07:18:33.424Z,5.50
2023-01-15T07:21:00.918Z,5.50
2023-01-15T07:23:28.206Z,5.60
2023-01-15T07:25:55.784Z,5.50
2023-01-15T07:28:23.434Z,5.50
2023-01-15T07:30:50.152Z,5.50
2023-01-15T07:33:16.812Z,5.60
2023-01-15T07:35:43.507Z,5.60
2023-01-15T07:38:10.121Z,5.50
2023-01-15T07:40:38.193Z,5.30
2023-01-15T07:43:23.432Z,5.50
2023-01-15T07:46:08.865Z,5.50
2023-01-15T07:48:54.244Z,5.40
2023-01-15T07:51:20.991Z,5.50
2023-01-15T07:53:47.631Z,5.40
2023-01-15T07:56:14.977Z,5.40
2023-01-15T07:58:41.609Z,5.40
2023-01-15T08:01:08.527Z,5.50
2023-01-15T08:03:35.339Z,5.40
2023-01-15T08:06:02.143Z,5.40
2023-01-15T08:08:28.785Z,5.50
2023-01-15T08:11:14.056Z,5.60
2023-01-15T08:13:59.375Z,5.50
2023-01-15T08:16:26.032Z,5.40
2023-01-15T08:18:52.707Z,5.50
2023-01-15T08:21:19.568Z,5.40
2023-01-15T08:23:47.543Z,5.30
2023-01-15T08:26:14.235Z,5.30
2023-01-15T08:28:40.963Z,5.50
2023-01-15T08:31:08.575Z,5.60
2023-01-15T08:33:35.435Z,5.60
2023-01-15T08:36:02.346Z,5.60
2023-01-15T08:38:29.396Z,5.60
2023-01-15T08:40:59.143Z,5.50
2023-01-15T08:43:31.124Z,5.50
2023-01-15T08:46:02.838Z,5.50
2023-01-15T08:48:32.186Z,5.60
2023-01-15T08:50:59.212Z,5.50
2023-01-15T08:53:26.355Z,5.50
2023-01-15T08:55:53.012Z,5.50
2023-01-15T08:58:19.648Z,5.40
2023-01-15T09:00:46.436Z,5.50
2023-01-15T09:03:13.433Z,5.40
2023-01-15T09:05:40.237Z,5.60
2023-01-15T09:08:07.374Z,5.70
2023-01-15T09:10:34.883Z,5.70
2023-01-15T09:13:02.452Z,5.80
2023-01-15T09:15:30.741Z,5.70
2023-01-15T09:17:58.020Z,5.70
2023-01-15T09:20:24.954Z,5.80
2023-01-15T09:22:51.908Z,5.70
2023-01-15T09:25:19.946Z,5.80
2023-01-15T09:27:46.970Z,5.80
2023-01-15T09:30:17.975Z,5.90
2023-01-15T09:32:44.680Z,5.90
2023-01-15T09:35:11.381Z,6.00
2023-01-15T09:37:38.150Z,5.90
2023-01-15T09:40:07.586Z,6.00
2023-01-15T09:42:38.274Z,5.90
2023-01-15T09:45:25.079Z,6.00
2023-01-15T09:48:03.763Z,5.90
2023-01-15T09:50:36.000Z,6.10
2023-01-15T09:53:17.717Z,6.10
2023-01-15T09:55:47.828Z,6.00
2023-01-15T09:58:17.732Z,6.00
2023-01-15T10:00:47.491Z,6.10
2023-01-15T10:03:28.867Z,6.10
2023-01-15T10:06:30.410Z,5.90
2023-01-15T10:09:17.985Z,6.00
2023-01-15T10:12:07.677Z,5.50
2023-01-15T10:14:50.293Z,5.20
2023-01-15T10:17:27.067Z,5.20
2023-01-15T10:19:54.975Z,5.10
2023-01-15T10:22:37.196Z,4.90
2023-01-15T10:25:11.532Z,4.80
2023-01-15T10:27:41.360Z,4.50
2023-01-15T10:30:19.125Z,4.40
2023-01-15T10:33:07.332Z,4.50
2023-01-15T10:35:49.222Z,4.40
2023-01-15T10:38:24.363Z,4.00
2023-01-15T10:41:00.046Z,3.90
2023-01-15T10:43:37.614Z,3.90
2023-01-15T10:46:12.816Z,3.70
2023-01-15T10:48:59.781Z,3.60
2023-01-15T10:51:48.340Z,3.60
2023-01-15T10:54:32.748Z,3.70
2023-01-15T10:57:23.548Z,3.70
2023-01-15T11:00:00.997Z,3.80
2023-01-15T11:02:37.406Z,3.90
2023-01-15T11:05:04.561Z,4.00
2023-01-15T11:07:54.119Z,4.10
2023-01-15T11:10:26.156Z,3.90
2023-01-15T11:13:19.360Z,3.80
2023-01-15T11:16:07.286Z,3.70
2023-01-15T11:19:00.549Z,3.70
2023-01-15T11:21:28.502Z,3.70
2023-01-15T11:23:58.577Z,3.50
2023-01-15T11:26:31.042Z,3.40
2023-01-15T11:29:00.366Z,3.40
2023-01-15T11:31:37.819Z,3.50
2023-01-15T11:34:07.002Z,3.60
2023-01-15T11:36:34.404Z,3.80
2023-01-15T11:39:01.180Z,4.10
2023-01-15T11:41:52.040Z,4.00
2023-01-15T11:44:40.113Z,4.10
2023-01-15T11:47:35.473Z,4.30
2023-01-15T11:50:20.888Z,4.60
2023-01-15T11:52:52.887Z,4.80
2023-01-15T11:55:23.704Z,4.80
2023-01-15T11:57:51.109Z,5.00
2023-01-15T12:00:43.976Z,5.00
2023-01-15T12:03:18.698Z,5.20
2023-01-15T12:06:07.866Z,5.70
2023-01-15T12:08:53.794Z,5.70
2023-01-15T12:11:45.043Z,5.70
2023-01-15T12:14:35.387Z,5.90
2023-01-15T12:17:20.793Z,6.60
2023-01-15T12:20:12.011Z,6.40
2023-01-15T12:23:00.519Z,6.70
2023-01-15T12:25:34.605Z,6.30
2023-01-15T12:28:03.643Z,6.00
2023-01-15T12:30:36.163Z,6.00
2023-01-15T12:33:13.786Z,6.00
2023-01-15T12:36:02.481Z,6.30
2023-01-15T12:38:54.671Z,6.20
2023-01-15T12:41:56.706Z,6.20
2023-01-15T12:44:56.461Z,6.40
2023-01-15T12:47:29.349Z,6.40
2023-01-15T12:50:18.970Z,6.80
2023-01-15T12:52:49.872Z,6.90
2023-01-15T12:55:20.925Z,6.80
2023-01-15T12:57:51.802Z,6.80
2023-01-15T13:00:24.847Z,6.60
2023-01-15T13:02:58.171Z,6.40
2023-01-15T13:05:32.264Z,6.20
2023-01-15T13:08:25.690Z,6.30
2023-01-15T13:10:53.112Z,6.30
2023-01-15T13:13:25.404Z,6.40
2023-01-15T13:16:10.994Z,6.50
2023-01-15T13:19:04.913Z,6.60
2023-01-15T13:21:35.315Z,6.70
2023-01-15T13:24:22.650Z,7.10
2023-01-15T13:27:16.092Z,7.00
2023-01-15T13:29:58.921Z,6.80
2023-01-15T13:32:33.551Z,6.90
2023-01-15T13:35:07.626Z,6.90
2023-01-15T13:37:40.730Z,6.70
2023-01-15T13:40:14.092Z,6.60
2023-01-15T13:42:46.944Z,6.60
2023-01-15T13:45:16.631Z,6.50
2023-01-15T13:47:50.712Z,6.50
2023-01-15T13:50:43.596Z,6.60
2023-01-15T13:53:25.174Z,6.60
2023-01-15T13:56:05.955Z,6.50
2023-01-15T13:58:34.846Z,6.60
2023-01-15T14:01:17.582Z,6.70
2023-01-15T14:04:15.451Z,6.50
2023-01-15T14:06:50.133Z,6.70
2023-01-15T14:09:22.758Z,6.80
2023-01-15T14:12:01.542Z,6.70
2023-01-15T14:14:57.710Z,6.60
2023-01-15T14:17:36.310Z,6.80
2023-01-15T14:20:20.833Z,6.90
2023-01-15T14:23:08.989Z,6.70
2023-01-15T14:25:42.335Z,6.70
2023-01-15T14:28:24.961Z,6.70
2023-01-15T14:31:10.494Z,6.90
2023-01-15T14:34:14.588Z,6.90
2023-01-15T14:37:00.775Z,6.90
2023-01-15T14:39:52.985Z,6.90
2023-01-15T14:42:41.019Z,6.90
2023-01-15T14:45:15.018Z,6.80
2023-01-15T14:48:00.883Z,6.60
2023-01-15T14:50:43.736Z,6.30
2023-01-15T14:53:13.524Z,6.40
2023-01-15T14:55:51.232Z,6.30
2023-01-15T14:58:49.174Z,6.30
2023-01-15T15:01:19.100Z,6.30
2023-01-15T15:04:13.899Z,6.20
2023-01-15T15:07:03.571Z,6.30
2023-01-15T15:09:48.580Z,6.40
2023-01-15T15:12:25.013Z,6.50
2023-01-15T15:15:14.983Z,6.40
2023-01-15T15:18:08.802Z,6.50
2023-01-15T15:20:59.710Z,6.30
2023-01-15T15:23:48.290Z,6.30
2023-01-15T15:26:30.383Z,6.20
2023-01-15T15:29:00.151Z,6.10
2023-01-15T15:31:28.909Z,6.20
2023-01-15T15:33:56.887Z,6.10
2023-01-15T15:36:26.541Z,6.00
2023-01-15T15:39:02.086Z,5.90
2023-01-15T15:41:53.292Z,5.90
2023-01-15T15:44:59.222Z,6.00
2023-01-15T15:47:45.304Z,5.90
2023-01-15T15:50:25.282Z,5.80
2023-01-15T15:52:52.542Z,5.80
2023-01-15T15:55:21.251Z,5.80
2023-01-15T15:57:53.142Z,5.90
2023-01-15T16:00:28.244Z,5.80
2023-01-15T16:02:55.379Z,5.90
2023-01-15T16:05:28.835Z,5.90
2023-01-15T16:07:55.557Z,6.00
2023-01-15T16:10:35.015Z,5.90
2023-01-15T16:13:07.224Z,5.90
2023-01-15T16:15:38.962Z,5.90
2023-01-15T16:18:10.118Z,5.90
2023-01-15T16:20:36.872Z,5.90
2023-01-15T16:23:05.341Z,6.00
2023-01-15T16:25:37.001Z,5.80
2023-01-15T16:28:04.937Z,5.90
2023-01-15T16:30:32.873Z,5.90
2023-01-15T16:33:07.638Z,5.90
2023-01-15T16:35:36.988Z,6.00
2023-01-15T16:38:04.920Z,5.90
2023-01-15T16:40:35.291Z,5.80
2023-01-15T16:43:14.915Z,5.70
2023-01-15T16:46:03.592Z,5.70
2023-01-15T16:48:38.293Z,5.60
2023-01-15T16:51:32.219Z,5.60
2023-01-15T16:54:04.234Z,5.60
2023-01-15T16:56:37.328Z,5.60
2023-01-15T16:59:45.177Z,5.80
2023-01-15T17:02:13.383Z,5.80
2023-01-15T17:04:43.615Z,5.80
2023-01-15T17:07:34.924Z,5.80
2023-01-15T17:10:04.505Z,5.90
2023-01-15T17:12:38.424Z,6.00
2023-01-15T17:15:14.403Z,6.00
2023-01-15T17:17:45.540Z,6.10
2023-01-15T17:20:13.701Z,6.10
2023-01-15T17:22:42.980Z,6.10
2023-01-15T17:25:27.483Z,6.10
2023-01-15T17:27:55.801Z,5.90
2023-01-15T17:30:26.055Z,5.80
2023-01-15T17:32:52.674Z,5.70
2023-01-15T17:35:28.373Z,5.70
2023-01-15T17:37:55.189Z,5.60
2023-01-15T17:40:22.133Z,5.50
2023-01-15T17:42:49.321Z,5.40
2023-01-15T17:45:19.838Z,5.30
2023-01-15T17:47:46.849Z,5.20
2023-01-15T17:50:14.633Z,5.20
2023-01-15T17:52:42.692Z,5.20
2023-01-15T17:55:37.296Z,5.20
2023-01-15T17:58:23.198Z,5.30
2023-01-15T18:01:08.969Z,5.30
2023-01-15T18:03:57.338Z,5.30
2023-01-15T18:06:24.060Z,5.30
2023-01-15T18:08:55.507Z,5.40
2023-01-15T18:11:22.295Z,5.30
2023-01-15T18:13:48.996Z,5.20
2023-01-15T18:16:17.111Z,5.20
2023-01-15T18:18:43.992Z,5.30
2023-01-15T18:21:10.653Z,5.20
2023-01-15T18:23:39.481Z,5.10
2023-01-15T18:26:07.163Z,5.10
2023-01-15T18:28:35.430Z,5.00
2023-01-15T18:31:03.189Z,5.10
2023-01-15T18:33:30.513Z,5.10
2023-01-15T18:36:06.224Z,5.00
2023-01-15T18:38:43.538Z,5.00
2023-01-15T18:41:36.599Z,4.90
2023-01-15T18:44:33.083Z,4.90
2023-01-15T18:47:03.580Z,5.00
2023-01-15T18:49:31.204Z,5.00
2023-01-15T18:52:17.085Z,5.00
2023-01-15T18:54:43.843Z,4.90
2023-01-15T18:57:10.547Z,5.00
2023-01-15T18:59:37.379Z,4.90
2023-01-15T19:02:04.466Z,5.00
2023-01-15T19:04:31.205Z,5.10
2023-01-15T19:06:58.025Z,5.10
2023-01-15T19:09:24.773Z,5.00
2023-01-15T19:11:52.383Z,4.80
2023-01-15T19:14:38.293Z,5.00
2023-01-15T19:17:23.766Z,4.90
2023-01-15T19:19:50.406Z,4.90
2023-01-15T19:22:36.041Z,4.70
2023-01-15T19:25:02.781Z,4.70
2023-01-15T19:27:29.453Z,4.60
2023-01-15T19:29:56.138Z,4.60
2023-01-15T19:32:22.792Z,4.60
2023-01-15T19:34:50.435Z,4.60
2023-01-15T19:37:17.114Z,4.50
2023-01-15T19:39:43.860Z,4.60
2023-01-15T19:42:31.485Z,4.60
2023-01-15T19:45:16.976Z,4.80
2023-01-15T19:48:02.555Z,5.00
2023-01-15T19:50:40.139Z,5.00
2023-01-15T19:53:07.150Z,5.20
2023-01-15T19:55:34.849Z,5.20
2023-01-15T19:58:03.471Z,5.20
2023-01-15T20:00:32.285Z,5.20
2023-01-15T20:02:59.418Z,5.10
2023-01-15T20:05:28.689Z,5.10
2023-01-15T20:07:55.507Z,5.10
2023-01-15T20:10:24.791Z,5.10
2023-01-15T20:13:10.268Z,5.10
2023-01-15T20:15:39.264Z,5.10
2023-01-15T20:18:06.713Z,5.10
2023-01-15T20:20:34.416Z,5.00
2023-01-15T20:23:01.666Z,5.20
2023-01-15T20:25:29.681Z,5.20
2023-01-15T20:27:58.480Z,5.30
2023-01-15T20:30:26.277Z,5.40
2023-01-15T20:32:54.984Z,5.40
2023-01-15T20:35:29.082Z,5.50
2023-01-15T20:37:55.739Z,5.50
2023-01-15T20:40:24.121Z,5.30
2023-01-15T20:43:09.923Z,5.30
2023-01-15T20:45:36.815Z,5.30
2023-01-15T20:48:12.816Z,5.20
2023-01-15T20:51:00.650Z,5.20
2023-01-15T20:53:30.165Z,5.20
2023-01-15T20:55:57.658Z,5.20
2023-01-15T20:58:24.819Z,5.10
2023-01-15T21:00:52.376Z,5.20
2023-01-15T21:03:20.548Z,5.30
2023-01-15T21:05:48.265Z,5.30
2023-01-15T21:08:15.184Z,5.30
2023-01-15T21:10:41.971Z,5.20
2023-01-15T21:13:08.723Z,5.20
2023-01-15T21:15:35.454Z,5.20
2023-01-15T21:18:02.148Z,5.30
2023-01-15T21:20:30.293Z,5.20
2023-01-15T21:22:57.610Z,5.20
2023-01-15T21:25:25.190Z,5.30
2023-01-15T21:27:52.111Z,5.40
2023-01-15T21:30:20.720Z,5.30
2023-01-15T21:32:48.509Z,5.20
2023-01-15T21:35:15.240Z,5.30
2023-01-15T21:37:41.901Z,5.20
2023-01-15T21:40:09.591Z,5.20
2023-01-15T21:42:55.140Z,4.90
2023-01-15T21:45:22.169Z,5.00
2023-01-15T21:47:48.877Z,4.80
2023-01-15T21:50:17.288Z,4.80
2023-01-15T21:52:44.075Z,4.90
2023-01-15T21:55:10.773Z,5.00
2023-01-15T21:57:38.187Z,4.90
2023-01-15T22:00:06.023Z,4.90
2023-01-15T22:02:35.838Z,5.00
2023-01-15T22:05:04.321Z,4.90
2023-01-15T22:07:31.283Z,4.80
2023-01-15T22:09:57.937Z,4.80
2023-01-15T22:12:24.622Z,4.90
2023-01-15T22:14:53.601Z,5.00
2023-01-15T22:17:20.365Z,4.90
2023-01-15T22:19:51.000Z,5.00
2023-01-15T22:22:17.867Z,5.10
2023-01-15T22:24:44.571Z,5.00
2023-01-15T22:27:15.151Z,5.10
2023-01-15T22:29:42.644Z,5.00
2023-01-15T22:32:13.084Z,5.00
2023-01-15T22:34:39.760Z,5.00
2023-01-15T22:37:06.496Z,4.90
2023-01-15T22:39:33.320Z,5.00
2023-01-15T22:42:18.987Z,5.10
2023-01-15T22:44:46.823Z,5.00
2023-01-15T22:47:13.623Z,5.10
2023-01-15T22:49:40.324Z,5.20
2023-01-15T22:52:07.232Z,5.20
2023-01-15T22:54:33.973Z,5.20
2023-01-15T22:57:00.699Z,5.20
2023-01-15T22:59:27.343Z,5.30
2023-01-15T23:01:54.299Z,5.30
2023-01-15T23:04:23.666Z,5.20
2023-01-15T23:06:51.781Z,5.20
2023-01-15T23:09:19.919Z,5.20
2023-01-15T23:11:46.672Z,5.20
2023-01-15T23:14:15.595Z,5.20
2023-01-15T23:16:42.975Z,5.30
2023-01-15T23:19:09.923Z,5.30
2023-01-15T23:21:39.055Z,5.20
2023-01-15T23:24:05.962Z,5.30
2023-01-15T23:26:33.857Z,5.20
2023-01-15T23:29:01.044Z,5.20
2023-01-15T23:31:28.259Z,5.20
2023-01-15T23:33:55.289Z,5.30
2023-01-15T23:36:22.679Z,5.30
2023-01-15T23:38:49.432Z,5.20
2023-01-15T23:41:39.988Z,5.20
2023-01-15T23:44:46.535Z,5.20
2023-01-15T23:47:13.322Z,5.10
2023-01-15T23:49:39.969Z,5.30
2023-01-15T23:52:06.892Z,5.30
2023-01-15T23:54:33.563Z,5.30
2023-01-15T23:57:01.809Z,5.30
2023-01-15T23:59:29.135Z,5.20
